Time;durP1;ratioP1;P1;durP2;ratioP2;P2;SDS_P1;SDS_P2;PMS_P1;PMS_P2;Temp;Humidity;BMP_temperature;BMP_pressure;BME280_temperature;BME280_humidity;BME280_pressure;Samples;Min_cycle;Max_cycle;Signal;HPM_P1;HPM_P2
2022/04/21 00:00:19;;;;;;;220.70;207.15;;;8.00;99.90;;;;;;5091596;28;20059;-78
2022/04/21 00:02:45;;;;;;;305.30;285.35;;;8.90;99.90;;;;;;5113034;28;20124;-79
2022/04/21 00:05:12;;;;;;;321.98;301.08;;;7.90;99.90;;;;;;5079591;28;20479;-78
2022/04/21 00:07:38;;;;;;;306.55;287.20;;;9.20;99.90;;;;;;5114933;28;20050;-78
2022/04/21 00:10:05;;;;;;;278.42;260.85;;;9.40;99.90;;;;;;5096431;28;20400;-79
2022/04/21 00:12:31;;;;;;;272.87;255.97;;;7.80;99.90;;;;;;5096201;28;20101;-78
2022/04/21 00:14:57;;;;;;;295.92;276.45;;;8.70;99.90;;;;;;5096607;28;20285;-78
2022/04/21 00:17:23;;;;;;;297.70;278.45;;;7.70;99.90;;;;;;5113582;28;20043;-79
2022/04/21 00:19:48;;;;;;;250.15;234.00;;;7.70;99.90;;;;;;5113305;28;20047;-80
2022/04/21 00:24:58;;;;;;;240.55;224.82;;;8.10;99.90;;;;;;5096450;28;20448;-79
2022/04/21 00:27:25;;;;;;;275.95;258.92;;;7.50;99.90;;;;;;5113100;28;20058;-79
2022/04/21 00:29:51;;;;;;;263.98;247.10;;;7.50;1.00;;;;;;5113086;28;20039;-81
2022/04/21 00:32:16;;;;;;;249.57;234.25;;;7.90;1.00;;;;;;5113902;28;20067;-80
2022/04/21 00:34:42;;;;;;;274.50;257.52;;;8.20;1.00;;;;;;5095626;28;20050;-80
2022/04/21 00:37:08;;;;;;;264.60;247.63;;;7.50;1.00;;;;;;5078945;28;20104;-80
2022/04/21 00:39:34;;;;;;;281.77;264.52;;;7.50;1.00;;;;;;5095832;28;20536;-80
2022/04/21 00:42:03;;;;;;;302.20;282.88;;;7.40;1.00;;;;;;5113850;28;20134;-80
2022/04/21 00:44:29;;;;;;;300.25;281.35;;;7.40;1.00;;;;;;5095141;28;20468;-80
2022/04/21 00:46:57;;;;;;;302.88;284.17;;;7.40;1.00;;;;;;5094966;28;20138;-80
2022/04/21 00:49:25;;;;;;;298.85;280.05;;;7.40;1.00;;;;;;5113618;28;20460;-81
2022/04/21 00:51:52;;;;;;;270.05;253.35;;;7.30;1.00;;;;;;5095741;28;20062;-80
2022/04/21 00:54:18;;;;;;;254.20;238.10;;;8.60;1.00;;;;;;5095301;28;20044;-81
2022/04/21 00:56:45;;;;;;;278.33;259.75;;;7.20;1.00;;;;;;5113717;28;20590;-81
2022/04/21 00:59:12;;;;;;;249.68;233.40;;;7.10;1.00;;;;;;5119439;27;20098;-81
2022/04/21 01:04:25;;;;;;;289.65;270.70;;;7.10;1.00;;;;;;5114785;27;20059;-81
2022/04/21 01:06:55;;;;;;;309.77;289.40;;;8.80;1.00;;;;;;5114656;27;20130;-80
2022/04/21 01:09:21;;;;;;;299.60;279.75;;;7.00;1.00;;;;;;5134054;27;20050;-80
2022/04/21 01:11:49;;;;;;;280.98;262.38;;;7.10;1.00;;;;;;5114916;27;20053;-80
2022/04/21 01:14:15;;;;;;;275.05;256.85;;;6.80;1.00;;;;;;5133950;27;20035;-81
2022/04/21 01:16:41;;;;;;;309.25;288.45;;;6.80;1.00;;;;;;5114896;27;20047;-80
2022/04/21 01:19:07;;;;;;;318.42;296.58;;;8.80;1.00;;;;;;5133111;27;20091;-80
2022/04/21 01:21:33;;;;;;;264.80;247.07;;;6.90;1.00;;;;;;5133662;27;20046;-81
2022/04/21 01:23:58;;;;;;;280.10;260.77;;;8.00;1.00;;;;;;5115069;27;20031;-81
2022/04/21 01:26:35;;;;;;;284.15;264.40;;;8.20;1.00;;;;;;5098568;27;20082;-80
2022/04/21 01:29:02;;;;;;;314.52;292.48;;;8.20;1.00;;;;;;5115512;27;20055;-80
2022/04/21 01:31:29;;;;;;;311.20;289.63;;;6.70;1.00;;;;;;5133483;27;20122;-81
2022/04/21 01:33:55;;;;;;;238.50;221.75;;;6.80;1.00;;;;;;5097717;27;20459;-80
2022/04/21 01:36:20;;;;;;;257.42;239.82;;;7.30;1.00;;;;;;5114938;27;20046;-80
2022/04/21 01:41:30;;;;;;;310.52;289.00;;;7.00;1.00;;;;;;5132955;27;20104;-80
2022/04/21 01:43:56;;;;;;;284.15;264.52;;;6.50;1.00;;;;;;5098363;27;20133;-80
2022/04/21 01:46:22;;;;;;;264.02;245.57;;;6.50;1.00;;;;;;5114763;27;20043;-80
2022/04/21 01:48:48;;;;;;;266.67;248.32;;;6.60;1.00;;;;;;5132608;27;20165;-81
2022/04/21 01:51:13;;;;;;;249.43;233.05;;;6.50;1.00;;;;;;5115015;27;20162;-80
2022/04/21 01:53:39;;;;;;;261.42;243.98;;;6.60;1.00;;;;;;5133005;27;20438;-80
2022/04/21 01:56:05;;;;;;;291.65;272.98;;;6.40;1.00;;;;;;5133029;27;20479;-80
2022/04/21 01:58:31;;;;;;;284.30;265.27;;;6.40;1.00;;;;;;5132484;27;20483;-81
2022/04/21 02:00:57;;;;;;;339.38;316.17;;;6.30;1.00;;;;;;5111030;28;20116;-80
2022/04/21 02:03:22;;;;;;;321.48;298.30;;;5.80;1.00;;;;;;5094307;28;20048;-80
2022/04/21 02:05:48;;;;;;;227.90;211.45;;;;;;;;;;5110802;28;20403;-81
2022/04/21 02:08:15;;;;;;;297.00;275.95;;;6.30;1.00;;;;;;5094671;28;20440;-80
2022/04/21 02:10:41;;;;;;;296.05;274.88;;;7.90;1.00;;;;;;5112331;28;20043;-80
2022/04/21 02:13:07;;;;;;;346.25;322.20;;;8.00;1.00;;;;;;5077448;28;20101;-81
2022/04/21 02:15:32;;;;;;;349.73;324.98;;;7.90;1.00;;;;;;5112352;28;20062;-80
2022/04/21 02:18:00;;;;;;;366.63;340.58;;;7.50;1.00;;;;;;5111523;28;20062;-80
2022/04/21 02:20:26;;;;;;;399.30;370.58;;;8.30;1.00;;;;;;5112292;28;20109;-80
2022/04/21 02:22:52;;;;;;;366.95;341.40;;;6.30;1.00;;;;;;5093877;28;20047;-80
2022/04/21 02:25:18;;;;;;;351.70;327.05;;;;;;;;;;5112274;28;20057;-80
2022/04/21 02:27:46;;;;;;;328.45;305.92;;;6.20;1.00;;;;;;5111671;28;20171;-80
2022/04/21 02:30:14;;;;;;;381.33;354.60;;;6.20;1.00;;;;;;5094410;28;20114;-80
2022/04/21 02:32:40;;;;;;;383.65;357.15;;;8.10;1.00;;;;;;5092865;28;20047;-81
2022/04/21 02:35:07;;;;;;;375.63;348.98;;;7.70;1.00;;;;;;5111872;28;20052;-80
2022/04/21 02:37:37;;;;;;;370.58;345.35;;;6.10;1.00;;;;;;5077060;28;20062;-81
2022/04/21 02:40:05;;;;;;;309.15;289.15;;;7.90;1.00;;;;;;5077403;28;20130;-80
2022/04/21 02:42:30;;;;;;;365.20;341.27;;;6.00;1.00;;;;;;5111748;28;20055;-80
2022/04/21 02:44:56;;;;;;;362.83;338.08;;;6.00;1.00;;;;;;5111590;28;20383;-80
2022/04/21 02:47:22;;;;;;;361.15;336.40;;;7.80;1.00;;;;;;5111579;28;20043;-81
2022/04/21 02:49:49;;;;;;;378.38;352.45;;;8.10;1.00;;;;;;5093468;28;20044;-80
2022/04/21 02:52:15;;;;;;;370.52;345.90;;;6.10;1.00;;;;;;5111683;28;20434;-80
2022/04/21 02:57:27;;;;;;;410.77;381.67;;;6.20;1.00;;;;;;5111887;28;20126;-80
2022/04/21 03:00:02;;;;;;;383.50;357.25;;;6.50;1.00;;;;;;5093188;28;20116;-81
2022/04/21 03:02:27;;;;;;;315.30;293.75;;;7.00;1.00;;;;;;5111522;28;20047;-80
2022/04/21 03:04:54;;;;;;;369.45;345.10;;;6.20;1.00;;;;;;5109423;28;20510;-81
2022/04/21 03:07:21;;;;;;;409.08;381.48;;;6.80;1.00;;;;;;5093018;28;20044;-80
2022/04/21 03:09:47;;;;;;;345.92;323.10;;;7.50;1.00;;;;;;5093450;28;20066;-79
2022/04/21 03:12:13;;;;;;;321.58;300.52;;;6.10;1.00;;;;;;5093334;28;20048;-80
2022/04/21 03:14:41;;;;;;;443.40;411.90;;;6.20;1.00;;;;;;5111460;28;20402;-79
2022/04/21 03:17:09;;;;;;;269.98;250.35;;;6.20;1.00;;;;;;5111403;28;20108;-80
2022/04/21 03:19:35;;;;;;;137.23;127.80;;;5.20;1.00;;;;;;5109655;28;20102;-80
2022/04/21 03:24:46;;;;;;;762.00;709.25;;;6.20;1.00;;;;;;5111088;28;20044;-79
2022/04/21 03:27:12;;;;;;;748.10;696.38;;;6.80;1.00;;;;;;5093231;28;20050;-80
2022/04/21 03:29:38;;;;;;;741.97;689.17;;;6.20;1.00;;;;;;5076477;28;20051;-80
2022/04/21 03:32:10;;;;;;;736.40;683.97;;;5.70;1.00;;;;;;5075675;28;20055;-80
2022/04/21 03:34:40;;;;;;;724.28;673.30;;;6.20;1.00;;;;;;5075741;28;20448;-80
2022/04/21 03:37:07;;;;;;;726.03;674.15;;;8.20;1.00;;;;;;5110920;28;20043;-80
2022/04/21 03:39:35;;;;;;;696.03;647.33;;;6.20;1.00;;;;;;5076801;28;20139;-80
2022/04/21 03:42:01;;;;;;;711.50;660.35;;;6.10;1.00;;;;;;5092815;28;20392;-80
2022/04/21 03:44:27;;;;;;;664.50;618.25;;;6.10;1.00;;;;;;5111130;28;20055;-80
2022/04/21 03:46:57;;;;;;;691.50;641.95;;;5.90;1.00;;;;;;5110303;28;20090;-80
2022/04/21 03:49:24;;;;;;;754.17;699.92;;;7.80;1.00;;;;;;5103689;28;20052;-80
2022/04/21 03:51:50;;;;;;;709.13;659.40;;;6.20;1.00;;;;;;5109894;28;20051;-81
2022/04/21 03:54:16;;;;;;;722.75;671.20;;;6.10;1.00;;;;;;5110850;28;20051;-80
2022/04/21 03:56:41;;;;;;;676.22;627.33;;;6.20;1.00;;;;;;5111179;28;20484;-81
2022/04/21 03:59:07;;;;;;;580.30;537.70;;;8.40;1.00;;;;;;5112559;28;20183;-80
2022/04/21 04:01:33;;;;;;;714.22;663.28;;;8.10;1.00;;;;;;5113107;28;20155;-82
2022/04/21 04:03:59;;;;;;;700.83;650.15;;;6.10;1.00;;;;;;5130661;28;20043;-80
2022/04/21 04:11:53;;;;;;;772.65;718.15;;;6.10;1.00;;;;;;5115374;28;20142;-80
2022/04/21 04:14:21;;;;;;;784.40;728.75;;;6.10;1.00;;;;;;5112982;28;20118;-80
2022/04/21 04:16:47;;;;;;;686.45;636.65;;;5.90;1.00;;;;;;5112461;28;20047;-80
2022/04/21 04:19:13;;;;;;;765.22;709.20;;;7.90;1.00;;;;;;5132236;27;20044;-81
2022/04/21 04:21:39;;;;;;;731.03;678.13;;;7.30;1.00;;;;;;5134926;27;20139;-81
2022/04/21 04:24:05;;;;;;;771.17;716.17;;;6.20;1.00;;;;;;5098588;27;20075;-82
2022/04/21 04:26:32;;;;;;;732.88;681.88;;;6.30;1.00;;;;;;5116682;27;20047;-82
2022/04/21 04:28:58;;;;;;;770.42;715.83;;;6.30;1.00;;;;;;5133503;27;20129;-80
2022/04/21 04:31:24;;;;;;;715.65;665.65;;;6.70;1.00;;;;;;5114668;27;20338;-82
2022/04/21 04:33:50;;;;;;;730.75;678.13;;;8.00;1.00;;;;;;5133872;27;20053;-81
2022/04/21 04:36:16;;;;;;;671.72;622.88;;;6.30;1.00;;;;;;5115802;27;20046;-81
2022/04/21 04:38:45;;;;;;;683.75;635.78;;;7.70;1.00;;;;;;5115870;27;20432;-81
2022/04/21 04:43:56;;;;;;;618.95;573.63;;;6.60;1.00;;;;;;5133944;27;20047;-81
2022/04/21 04:46:40;;;;;;;622.95;578.80;;;6.20;1.00;;;;;;5098768;27;20045;-81
2022/04/21 04:49:08;;;;;;;367.60;344.65;;;6.40;1.00;;;;;;5133812;27;20043;-81
2022/04/21 04:51:40;;;;;;;556.60;519.53;;;6.10;1.00;;;;;;5116335;27;20050;-81
2022/04/21 04:54:07;;;;;;;399.02;371.85;;;6.20;1.00;;;;;;5099067;27;20037;-81
2022/04/21 04:56:34;;;;;;;307.45;288.00;;;6.70;1.00;;;;;;5115977;27;20462;-81
2022/04/21 04:59:00;;;;;;;393.27;367.88;;;6.40;1.00;;;;;;5114733;27;20221;-80
2022/04/21 05:01:34;;;;;;;444.45;415.27;;;6.20;1.00;;;;;;5099163;27;20050;-83
2022/04/21 05:04:07;;;;;;;598.72;557.75;;;6.00;1.00;;;;;;5115488;27;20047;-81
2022/04/21 05:06:37;;;;;;;613.55;572.35;;;6.30;1.00;;;;;;5132762;27;20219;-81
2022/04/21 05:09:09;;;;;;;593.20;553.42;;;6.40;1.00;;;;;;5133621;27;20051;-81
2022/04/21 05:11:36;;;;;;;546.95;509.55;;;6.50;1.00;;;;;;5115879;27;20065;-81
2022/04/21 05:14:03;;;;;;;619.65;577.22;;;;;;;;;;5115531;27;20432;-81
2022/04/21 05:16:29;;;;;;;590.88;551.28;;;;;;;;;;5115711;27;20043;-82
2022/04/21 05:18:56;;;;;;;510.55;476.83;;;6.40;1.00;;;;;;5115407;27;20451;-81
2022/04/21 05:21:23;;;;;;;567.13;529.25;;;6.40;1.00;;;;;;5115155;27;20100;-81
2022/04/21 05:23:57;;;;;;;496.93;464.17;;;6.30;1.00;;;;;;5098900;27;20047;-82
2022/04/21 05:26:24;;;;;;;560.53;522.50;;;6.40;1.00;;;;;;5080515;27;20486;-82
2022/04/21 05:28:50;;;;;;;561.42;523.30;;;6.80;1.00;;;;;;5115200;27;20095;-81
2022/04/21 05:31:16;;;;;;;398.83;372.77;;;6.50;1.00;;;;;;5114801;27;20421;-80
2022/04/21 05:33:43;;;;;;;575.67;537.22;;;6.60;1.00;;;;;;5098123;27;20084;-79
2022/04/21 05:36:09;;;;;;;541.47;504.95;;;6.70;1.00;;;;;;5133552;27;20100;-80
2022/04/21 05:38:37;;;;;;;548.60;512.17;;;6.70;1.00;;;;;;5133731;27;20099;-81
2022/04/21 05:41:04;;;;;;;524.28;488.77;;;6.70;1.00;;;;;;5133394;27;20047;-81
2022/04/21 05:43:43;;;;;;;452.60;422.75;;;6.70;1.00;;;;;;5115186;27;20039;-81
2022/04/21 05:46:11;;;;;;;572.63;534.22;;;6.80;1.00;;;;;;5114939;27;20054;-81
2022/04/21 05:48:37;;;;;;;;;;;6.80;1.00;;;;;;5115348;27;20043;-81
2022/04/21 05:51:04;;;;;;;426.38;398.77;;;6.80;1.00;;;;;;5098066;27;20354;-81
2022/04/21 05:53:36;;;;;;;472.50;441.13;;;6.80;1.00;;;;;;5114821;27;20046;-81
2022/04/21 05:56:04;;;;;;;442.65;413.60;;;6.90;1.00;;;;;;5114628;27;20047;-85
2022/04/21 05:58:30;;;;;;;669.95;625.15;;;7.00;1.00;;;;;;5132966;27;20084;-81
2022/04/21 06:00:57;;;;;;;692.05;645.88;;;7.00;1.00;;;;;;5131938;27;20485;-80
2022/04/21 06:03:23;;;;;;;706.60;659.55;;;7.10;1.00;;;;;;5131563;27;20027;-81
2022/04/21 06:05:49;;;;;;;697.63;650.63;;;7.10;1.00;;;;;;5097536;27;20069;-81
2022/04/21 06:08:14;;;;;;;666.40;621.65;;;7.30;1.00;;;;;;5132066;27;20047;-80
2022/04/21 06:10:40;;;;;;;653.50;609.72;;;8.50;1.00;;;;;;5132842;27;20126;-80
2022/04/21 06:13:08;;;;;;;576.72;538.25;;;7.50;1.00;;;;;;5114072;27;20078;-80
2022/04/21 06:15:33;;;;;;;597.50;556.03;;;7.40;1.00;;;;;;5114516;27;20055;-80
2022/04/21 06:18:00;;;;;;;669.17;623.95;;;7.40;1.00;;;;;;5114277;27;20047;-80
2022/04/21 06:20:27;;;;;;;665.47;621.20;;;8.50;1.00;;;;;;5113986;27;20083;-83
2022/04/21 06:22:54;;;;;;;572.60;535.03;;;7.60;1.00;;;;;;5114419;27;20133;-80
2022/04/21 06:25:21;;;;;;;439.75;411.13;;;7.60;1.00;;;;;;5114345;27;20125;-81
2022/04/21 06:27:47;;;;;;;565.03;526.33;;;7.60;1.00;;;;;;5114101;27;20050;-80
2022/04/21 06:30:13;;;;;;;366.35;342.65;;;9.90;1.00;;;;;;5114124;27;20047;-81
2022/04/21 06:32:39;;;;;;;412.75;385.00;;;;;;;;;;5131611;27;20122;-80
2022/04/21 06:35:06;;;;;;;449.65;419.65;;;7.80;1.00;;;;;;5132036;27;20519;-83
2022/04/21 06:37:31;;;;;;;674.67;629.17;;;7.90;1.00;;;;;;5111475;27;20065;-82
2022/04/21 06:39:57;;;;;;;608.80;568.28;;;8.00;1.00;;;;;;5094809;27;20460;-80
2022/04/21 06:42:23;;;;;;;678.65;632.42;;;8.60;1.00;;;;;;5111155;27;20047;-80
2022/04/21 06:50:17;;;;;;;590.38;551.05;;;8.40;1.00;;;;;;5098650;27;20055;-80
2022/04/21 06:52:43;;;;;;;495.70;464.42;;;8.60;1.00;;;;;;5113060;27;20050;-80
2022/04/21 06:55:09;;;;;;;558.25;521.17;;;9.30;1.00;;;;;;5113009;27;20046;-82
2022/04/21 06:57:35;;;;;;;582.47;543.03;;;9.00;1.00;;;;;;5113317;28;20050;-80
2022/04/21 07:00:01;;;;;;;476.55;446.42;;;8.90;1.00;;;;;;5096358;28;20495;-80
2022/04/21 07:02:31;;;;;;;575.53;537.22;;;9.10;1.00;;;;;;5112696;27;20047;-83
2022/04/21 07:05:11;;;;;;;430.45;403.08;;;9.20;1.00;;;;;;5114111;28;20142;-80
2022/04/21 07:07:41;;;;;;;544.90;508.92;;;9.20;1.00;;;;;;5096789;28;20051;-86
2022/04/21 07:10:07;;;;;;;424.67;398.27;;;9.50;1.00;;;;;;5131398;28;20054;-80
2022/04/21 07:12:34;;;;;;;556.67;518.85;;;9.60;1.00;;;;;;5113440;28;20132;-81
2022/04/21 07:15:06;;;;;;;655.97;609.25;;;9.70;1.00;;;;;;5112579;28;20055;-82
2022/04/21 07:17:32;;;;;;;517.45;484.35;;;9.80;99.90;;;;;;5113053;28;20043;-79
2022/04/21 07:19:59;;;;;;;489.77;458.80;;;9.90;99.90;;;;;;5131853;28;20050;-80
2022/04/21 07:22:25;;;;;;;478.45;448.55;;;10.00;1.00;;;;;;5093788;28;20147;-81
2022/04/21 07:24:52;;;;;;;419.88;394.73;;;10.10;99.90;;;;;;5112602;28;20085;-81
2022/04/21 07:27:18;;;;;;;674.30;626.88;;;10.50;99.90;;;;;;5095851;28;20043;-80
2022/04/21 07:29:43;;;;;;;720.97;673.42;;;12.20;99.90;;;;;;5113044;28;20054;-80
2022/04/21 07:32:10;;;;;;;668.30;624.20;;;14.00;99.90;;;;;;5113102;28;20456;-79
2022/04/21 07:34:36;;;;;;;734.13;683.07;;;15.50;99.90;;;;;;5131783;28;20047;-82
2022/04/21 07:37:03;;;;;;;658.42;614.97;;;16.70;99.90;;;;;;5131809;28;20671;-81
2022/04/21 07:39:29;;;;;;;757.80;706.13;;;17.80;99.90;;;;;;5131592;28;20525;-80
2022/04/21 07:41:57;;;;;;;721.13;673.20;;;18.80;99.90;;;;;;5097366;28;20051;-79
2022/04/21 07:44:23;;;;;;;708.78;661.35;;;19.80;99.90;;;;;;5131541;28;20050;-80
2022/04/21 07:46:49;;;;;;;675.22;629.92;;;20.60;99.90;;;;;;5113667;28;20150;-80
2022/04/21 07:54:43;;;;;;;414.63;389.88;;;21.70;99.90;;;;;;5135998;27;20050;-81
2022/04/21 07:57:10;;;;;;;460.88;433.25;;;22.20;99.90;;;;;;5136225;27;20047;-81
2022/04/21 07:59:42;;;;;;;441.35;415.17;;;22.50;99.90;;;;;;5135950;27;20104;-81
2022/04/21 08:02:08;;;;;;;411.98;387.52;;;23.10;99.90;;;;;;5135668;27;20051;-78
2022/04/21 08:04:37;;;;;;;373.67;352.27;;;23.20;99.90;;;;;;5117421;27;20051;-81
2022/04/21 08:07:06;;;;;;;283.45;266.77;;;23.60;99.90;;;;;;5135360;27;20480;-80
2022/04/21 08:09:32;;;;;;;234.38;221.23;;;24.30;99.90;;;;;;5135577;27;20248;-84
2022/04/21 08:11:58;;;;;;;182.57;172.38;;;24.20;99.90;;;;;;5135655;27;20051;-80
2022/04/21 08:14:24;;;;;;;179.02;169.48;;;24.20;99.90;;;;;;5113695;27;20043;-80
2022/04/21 08:16:53;;;;;;;166.07;156.85;;;24.10;99.90;;;;;;5133813;27;20043;-81
2022/04/21 08:19:23;;;;;;;153.13;144.60;;;24.20;99.90;;;;;;5116505;27;20406;-80
2022/04/21 08:21:49;;;;;;;210.45;198.73;;;24.50;99.90;;;;;;5135275;27;20043;-81
2022/04/21 08:32:36;;;;;;;94.82;89.75;;;25.10;99.90;;;;;;5133885;27;20133;-81
2022/04/21 08:35:05;;;;;;;162.93;153.88;;;25.80;99.90;;;;;;5134928;27;20417;-81
2022/04/21 08:37:34;;;;;;;205.75;193.65;;;25.90;99.90;;;;;;5134613;27;20046;-80
2022/04/21 08:40:01;;;;;;;249.18;235.07;;;25.50;99.90;;;;;;5134879;27;20047;-80
2022/04/21 08:42:30;;;;;;;428.98;402.73;;;25.40;99.90;;;;;;5115970;27;20046;-81
2022/04/21 08:44:58;;;;;;;188.95;178.15;;;25.40;99.90;;;;;;5116195;27;20039;-80
2022/04/21 08:47:27;;;;;;;217.95;205.85;;;25.60;99.90;;;;;;5115475;27;20090;-81
2022/04/21 08:49:59;;;;;;;364.88;343.02;;;25.30;99.90;;;;;;5116497;27;20096;-82
2022/04/21 08:52:27;;;;;;;469.40;438.73;;;25.60;99.90;;;;;;5134109;27;20058;-80
2022/04/21 08:54:55;;;;;;;341.48;321.17;;;25.70;99.90;;;;;;5115689;27;20043;-82
2022/04/21 08:57:21;;;;;;;280.80;265.23;;;25.70;99.90;;;;;;5115878;27;20104;-81
2022/04/21 08:59:47;;;;;;;442.88;414.58;;;25.90;99.90;;;;;;5115794;27;20051;-81
2022/04/21 09:02:13;;;;;;;507.63;475.55;;;25.60;99.90;;;;;;5133818;27;20054;-80
2022/04/21 09:04:39;;;;;;;522.88;488.60;;;25.80;99.90;;;;;;5132899;27;20035;-80
2022/04/21 09:07:19;;;;;;;536.47;501.80;;;25.90;99.90;;;;;;5134263;27;20055;-80
2022/04/21 09:10:06;;;;;;;553.10;516.80;;;25.90;99.90;;;;;;5134281;27;20506;-79
2022/04/21 09:12:34;;;;;;;571.15;533.80;;;26.00;99.90;;;;;;5133771;27;20046;-80
2022/04/21 09:15:08;;;;;;;487.80;456.90;;;26.10;99.90;;;;;;5115509;27;20491;-80
2022/04/21 09:17:53;;;;;;;600.25;560.53;;;26.00;99.90;;;;;;5098192;27;20047;-80
2022/04/21 09:20:22;;;;;;;564.53;527.25;;;26.00;99.90;;;;;;5115656;27;20122;-88
2022/04/21 09:22:49;;;;;;;492.88;462.33;;;25.90;99.90;;;;;;5133092;27;20078;-80
2022/04/21 09:25:14;;;;;;;584.67;546.17;;;25.80;99.90;;;;;;5115156;27;20080;-81
2022/04/21 09:27:45;;;;;;;541.88;507.20;;;25.70;99.90;;;;;;5133496;27;20135;-81
2022/04/21 09:30:15;;;;;;;482.15;451.67;;;25.70;99.90;;;;;;5133929;27;20104;-81
2022/04/21 09:32:49;;;;;;;532.15;498.23;;;24.80;99.90;;;;;;5132794;27;20047;-81
2022/04/21 09:35:15;;;;;;;576.92;540.00;;;25.30;99.90;;;;;;5133556;27;20127;-80
2022/04/21 09:37:52;;;;;;;530.50;496.60;;;26.10;99.90;;;;;;5115094;27;20129;-82
2022/04/21 09:40:20;;;;;;;572.25;534.95;;;26.20;99.90;;;;;;5116608;27;20062;-82
2022/04/21 09:43:02;;;;;;;513.40;480.85;;;26.50;99.90;;;;;;5133194;27;20092;-81
2022/04/21 09:48:30;;;;;;;533.58;499.77;;;27.00;99.90;;;;;;5133183;27;20073;-81
2022/04/21 09:51:17;;;;;;;506.42;474.50;;;27.20;99.90;;;;;;5115138;27;20046;-82
2022/04/21 09:54:02;;;;;;;483.00;453.20;;;27.20;99.90;;;;;;5114307;27;20332;-81
2022/04/21 09:56:32;;;;;;;515.22;482.73;;;27.60;99.90;;;;;;5132798;27;20046;-83
2022/04/21 09:58:59;;;;;;;519.65;486.75;;;27.50;99.90;;;;;;5133116;27;20548;-81
2022/04/21 10:01:27;;;;;;;470.40;441.85;;;27.80;99.90;;;;;;5097386;27;20055;-84
2022/04/21 10:03:53;;;;;;;431.45;405.67;;;27.90;99.90;;;;;;5132422;27;20122;-82
2022/04/21 10:06:20;;;;;;;416.60;391.77;;;28.10;99.90;;;;;;5132909;27;20039;-80
2022/04/21 10:08:48;;;;;;;416.60;392.20;;;28.30;99.90;;;;;;5132688;27;20138;-81
2022/04/21 10:11:14;;;;;;;426.67;400.92;;;28.50;99.90;;;;;;5133220;27;20051;-81
2022/04/21 10:13:40;;;;;;;388.23;365.40;;;28.90;99.90;;;;;;5113751;27;20449;-81
2022/04/21 10:16:09;;;;;;;373.67;351.70;;;29.00;99.90;;;;;;5114085;28;20039;-82
2022/04/21 10:18:35;;;;;;;348.98;328.98;;;28.80;99.90;;;;;;5131578;27;20047;-80
2022/04/21 10:21:01;;;;;;;312.13;294.33;;;28.60;99.90;;;;;;5114486;27;20047;-80
2022/04/21 10:23:28;;;;;;;338.70;319.33;;;28.70;99.90;;;;;;5113504;27;20043;-82
2022/04/21 10:26:04;;;;;;;262.17;247.65;;;28.60;99.90;;;;;;5097463;27;20047;-81
2022/04/21 10:28:38;;;;;;;311.70;294.23;;;28.70;99.90;;;;;;5132413;27;20502;-81
2022/04/21 10:31:31;;;;;;;259.92;245.48;;;28.60;99.90;;;;;;5114290;27;20099;-82
2022/04/21 10:34:06;;;;;;;274.63;259.08;;;28.80;99.90;;;;;;5132197;27;20035;-81
2022/04/21 10:36:49;;;;;;;273.50;258.42;;;28.30;99.90;;;;;;5131934;27;20125;-82
2022/04/21 10:39:18;;;;;;;264.73;250.27;;;28.60;99.90;;;;;;5131949;27;20498;-82
2022/04/21 10:41:47;;;;;;;276.48;260.88;;;29.00;99.90;;;;;;5131961;27;20087;-83
2022/04/21 10:44:26;;;;;;;369.63;347.35;;;29.40;99.90;;;;;;5132034;27;20506;-83
2022/04/21 10:47:36;;;;;;;258.95;244.75;;;29.80;99.90;;;;;;5097015;27;20043;-83
2022/04/21 10:50:17;;;;;;;222.02;210.07;;;30.00;99.90;;;;;;5105666;27;20430;-82
2022/04/21 10:58:35;;;;;;;191.88;181.07;;;30.10;99.90;;;;;;5113396;27;20054;-83
2022/04/21 11:01:08;;;;;;;134.55;126.88;;;29.50;99.90;;;;;;5132328;27;20059;-82
2022/04/21 11:03:36;;;;;;;189.15;178.60;;;29.70;99.90;;;;;;5113127;28;20047;-82
2022/04/21 11:06:06;;;;;;;159.50;150.68;;;29.20;99.90;;;;;;5132076;27;20107;-82
2022/04/21 11:08:32;;;;;;;130.05;122.95;;;29.20;99.90;;;;;;5131767;28;20047;-82
2022/04/21 11:10:58;;;;;;;140.48;132.52;;;29.40;99.90;;;;;;5113914;28;20132;-81
2022/04/21 11:13:41;;;;;;;128.55;121.65;;;29.50;99.90;;;;;;5096565;28;20043;-82
2022/04/21 11:16:07;;;;;;;168.32;158.90;;;29.80;99.90;;;;;;5096638;28;20051;-81
2022/04/21 11:18:33;;;;;;;67.25;63.22;;;30.20;99.90;;;;;;5130882;28;20436;-82
2022/04/21 11:21:26;;;;;;;121.63;115.07;;;30.40;99.90;;;;;;5113848;28;20045;-82
2022/04/21 11:23:52;;;;;;;54.50;51.35;;;30.60;99.90;;;;;;5130669;28;20547;-82
2022/04/21 11:26:25;;;;;;;74.47;70.30;;;30.10;99.90;;;;;;5096781;28;20126;-81
2022/04/21 11:28:51;;;;;;;256.77;241.73;;;29.80;99.90;;;;;;5116217;27;20450;-82
2022/04/21 11:31:20;;;;;;;201.40;190.18;;;29.40;99.90;;;;;;5117908;27;20079;-82
2022/04/21 11:33:46;;;;;;;237.82;224.50;;;29.00;99.90;;;;;;5117198;27;20325;-82
2022/04/21 11:36:15;;;;;;;185.70;175.48;;;28.70;99.90;;;;;;5135854;27;20112;-83
2022/04/21 11:38:43;;;;;;;190.00;179.70;;;28.60;99.90;;;;;;5083419;27;20413;-81
2022/04/21 11:41:11;;;;;;;286.98;270.58;;;28.20;99.90;;;;;;5136076;27;20107;-82
2022/04/21 11:43:44;;;;;;;248.05;233.98;;;28.00;99.90;;;;;;5135619;27;20474;-81
2022/04/21 11:46:12;;;;;;;304.23;285.95;;;28.10;99.90;;;;;;5117396;27;20462;-82
2022/04/21 11:48:42;;;;;;;203.23;191.90;;;27.70;99.90;;;;;;5099562;27;20051;-82
2022/04/21 11:51:24;;;;;;;164.88;155.77;;;28.00;99.90;;;;;;5135926;27;20043;-82
2022/04/21 11:53:50;;;;;;;237.48;223.75;;;28.50;99.90;;;;;;5083401;27;20312;-82
2022/04/21 11:56:16;;;;;;;169.60;160.35;;;28.60;99.90;;;;;;5135435;27;20043;-81
2022/04/21 11:58:42;;;;;;;133.63;126.35;;;28.80;99.90;;;;;;5116568;27;20065;-82
2022/04/21 12:06:49;;;;;;;378.02;354.90;;;29.20;99.90;;;;;;5113013;28;20592;-82
2022/04/21 12:09:17;;;;;;;519.97;485.75;;;28.60;99.90;;;;;;5114291;28;20067;-82
2022/04/21 12:11:50;;;;;;;256.70;242.15;;;27.90;99.90;;;;;;5114311;28;20035;-81
2022/04/21 12:14:17;;;;;;;405.00;379.88;;;27.50;99.90;;;;;;5114484;28;20112;-82
2022/04/21 12:16:45;;;;;;;527.72;493.73;;;26.60;99.90;;;;;;5113813;28;20075;-82
2022/04/21 12:19:44;;;;;;;426.83;399.77;;;26.10;99.90;;;;;;5096236;28;20044;-82
2022/04/21 12:22:18;;;;;;;573.28;535.33;;;25.50;99.90;;;;;;5114391;28;20540;-82
2022/04/21 12:24:45;;;;;;;380.05;357.05;;;25.00;99.90;;;;;;5114046;28;20584;-81
2022/04/21 12:27:15;;;;;;;463.58;434.65;;;24.30;99.90;;;;;;5096060;28;20123;-82
2022/04/21 12:30:01;;;;;;;501.75;469.70;;;23.90;99.90;;;;;;5070381;28;20472;-81
2022/04/21 12:32:34;;;;;;;529.63;495.60;;;22.90;99.90;;;;;;5113812;28;20051;-81
2022/04/21 12:35:03;;;;;;;475.67;445.00;;;22.60;99.90;;;;;;5079044;28;20639;-81
2022/04/21 12:37:31;;;;;;;514.17;480.65;;;22.30;99.90;;;;;;5095776;28;20415;-81
2022/04/21 12:39:58;;;;;;;613.78;572.67;;;22.10;99.90;;;;;;5094250;28;20055;-83
2022/04/21 12:42:24;;;;;;;539.63;504.52;;;21.80;99.90;;;;;;5079188;28;20051;-82
2022/04/21 12:44:51;;;;;;;467.77;437.90;;;21.60;99.90;;;;;;5078485;28;20124;-81
2022/04/21 12:47:18;;;;;;;547.03;510.85;;;21.20;99.90;;;;;;5112086;28;20475;-81
2022/04/21 12:49:52;;;;;;;493.38;462.63;;;20.70;99.90;;;;;;5112665;28;20048;-82
2022/04/21 12:52:41;;;;;;;492.05;459.23;;;20.70;99.90;;;;;;5113624;28;20064;-81
2022/04/21 12:55:07;;;;;;;;;;;20.60;99.90;;;;;;5079416;28;20522;-82
2022/04/21 12:57:33;;;;;;;540.08;504.50;;;20.50;99.90;;;;;;5096143;28;19920;-82
2022/04/21 13:00:03;;;;;;;363.42;340.65;;;20.40;99.90;;;;;;5117588;27;20055;-82
2022/04/21 13:02:29;;;;;;;398.42;374.17;;;20.30;99.90;;;;;;5134083;27;20047;-81
2022/04/21 13:04:55;;;;;;;397.45;372.98;;;20.10;99.90;;;;;;5098936;27;20464;-80
2022/04/21 13:07:21;;;;;;;368.15;346.08;;;20.10;99.90;;;;;;5116171;27;20112;-82
2022/04/21 13:09:47;;;;;;;418.17;391.83;;;20.30;99.90;;;;;;5134009;27;20047;-81
2022/04/21 13:12:13;;;;;;;340.08;319.60;;;20.00;99.90;;;;;;5134245;27;20403;-82
2022/04/21 13:14:39;;;;;;;407.92;381.63;;;19.90;99.90;;;;;;5133330;27;20039;-81
2022/04/21 13:17:05;;;;;;;405.33;379.73;;;19.80;99.90;;;;;;5098774;27;20118;-82
2022/04/21 13:19:32;;;;;;;347.15;325.60;;;19.90;99.90;;;;;;5133877;27;20418;-81
2022/04/21 13:22:01;;;;;;;405.65;380.42;;;19.70;99.90;;;;;;5133754;27;20055;-81